»·PEaware :: N350AC KBUR-KLAS

N350AC :: KBUR-KLAS

FLIGHT INFORMATION

Flight Status: Arrived
Operator: Privately registered:
United States
More flights under this callsign
Pilot: Alex I. (31258)
Aircraft: Cessna 525C Citation CJ4
(C25C)
More flights by this aircraft type
Origin: KBUR Bob Hope-Burbank
United States
Destination: KLAS Harry Reid Intl
United States
More flights between these airports :: More routes between these airports
Route: SLAPP2 MISEN RNDRZ1
File this flight plan on PilotEdge
Remarks:
Altitude:
(Current/Filed)
27,000ft
Speed:
(Current/Filed)
300kts
Departed: 25-Nov-21 03:02 PM
Arrived: 25-Nov-21 03:57 PM
Distance/Time
Traveled:
194nm/0:55
Distance/Time
To Go:
Arrived

Flight Plot

Page will automatically refresh every two minutes.

Flight plan parsing failed; only flown route is shown


Map Options




Map Legend


Flown Route
Filed Route
Departure Airport
Arrival Airport
Navaid (VOR, NDB)
Fix

Horizontal Profiles

Position Reports

Time Latitude Longitude Heading Altitude Ground
Speed
25-Nov-21 14:53 34.196174 -118.364139 286 721ft 0kts
25-Nov-21 14:54 34.196174 -118.364139 286 721ft 0kts
25-Nov-21 14:55 34.196174 -118.364139 286 721ft 0kts
25-Nov-21 14:56 34.196174 -118.364139 286 721ft 0kts
25-Nov-21 14:57 34.196275 -118.364360 300 721ft 7kts
25-Nov-21 14:58 34.196925 -118.367351 270 727ft 11kts
25-Nov-21 14:59 34.197087 -118.368916 323 729ft 0kts
25-Nov-21 15:00 34.197853 -118.368746 79 728ft 10kts
25-Nov-21 15:01 34.198197 -118.352818 84 733ft 127kts
25-Nov-21 15:02 34.174526 -118.312603 172 3493ft 172kts
25-Nov-21 15:03 34.123100 -118.355552 221 5394ft 281kts
25-Nov-21 15:04 34.088126 -118.434796 300 7171ft 272kts
25-Nov-21 15:05 34.145143 -118.437449 9 8904ft 218kts
25-Nov-21 15:06 34.200717 -118.424899 14 10558ft 189kts
25-Nov-21 15:07 34.256398 -118.407193 13 12290ft 249kts
25-Nov-21 15:08 34.333502 -118.383398 13 14048ft 317kts
25-Nov-21 15:09 34.418509 -118.353178 21 15230ft 321kts
25-Nov-21 15:10 34.498283 -118.297816 38 15220ft 345kts
25-Nov-21 15:11 34.571953 -118.223272 37 15763ft 346kts
25-Nov-21 15:12 34.645835 -118.148872 37 16557ft 345kts
25-Nov-21 15:13 34.680136 -118.038732 71 17162ft 363kts
25-Nov-21 15:14 34.695641 -117.916126 81 17232ft 371kts
25-Nov-21 15:15 34.702292 -117.795492 79 16870ft 347kts
25-Nov-21 15:16 34.707374 -117.680223 81 16556ft 341kts
25-Nov-21 15:17 34.712039 -117.560714 80 18029ft 360kts
25-Nov-21 15:18 34.729598 -117.442044 63 20009ft 358kts
25-Nov-21 15:19 34.762682 -117.326335 65 21798ft 363kts
25-Nov-21 15:20 34.793012 -117.210507 63 23880ft 357kts
25-Nov-21 15:21 34.822766 -117.096750 62 25974ft 349kts
25-Nov-21 15:22 34.852519 -116.984501 62 27403ft 358kts
25-Nov-21 15:23 34.884189 -116.863290 64 27390ft 387kts
25-Nov-21 15:24 34.899984 -116.802096 63 27395ft 389kts
25-Nov-21 15:25 34.901665 -116.795899 63 27395ft 389kts
25-Nov-21 15:26 34.944648 -116.676949 47 27403ft 379kts
25-Nov-21 15:27 35.007317 -116.572727 49 27399ft 384kts
25-Nov-21 15:28 35.067661 -116.465041 49 27412ft 385kts
25-Nov-21 15:29 35.131460 -116.360485 40 27428ft 381kts
25-Nov-21 15:30 35.206717 -116.268797 42 27428ft 381kts
25-Nov-21 15:31 35.277813 -116.172184 43 27437ft 382kts
25-Nov-21 15:32 35.349150 -116.074685 43 27432ft 385kts
25-Nov-21 15:33 35.420099 -115.976788 44 27445ft 385kts
25-Nov-21 15:34 35.489977 -115.880232 44 26456ft 375kts
25-Nov-21 15:35 35.558574 -115.785821 44 23372ft 363kts
25-Nov-21 15:36 35.626684 -115.697220 41 19307ft 331kts
25-Nov-21 15:37 35.682353 -115.631423 43 19331ft 264kts
25-Nov-21 15:38 35.736531 -115.566918 42 19196ft 272kts
25-Nov-21 15:39 35.793971 -115.507089 29 18764ft 270kts
25-Nov-21 15:40 35.859793 -115.463607 28 17378ft 265kts
25-Nov-21 15:41 35.922951 -115.418841 30 15348ft 257kts
25-Nov-21 15:42 35.984240 -115.376129 30 13490ft 249kts
25-Nov-21 15:43 36.012648 -115.310102 90 11660ft 246kts
25-Nov-21 15:44 36.009309 -115.227221 90 9924ft 239kts
25-Nov-21 15:45 36.004383 -115.147452 89 7746ft 210kts
25-Nov-21 15:46 36.000255 -115.075632 90 7781ft 227kts
25-Nov-21 15:47 35.999185 -114.992814 87 7831ft 246kts
25-Nov-21 15:48 35.998525 -114.912829 87 7796ft 223kts
25-Nov-21 15:49 36.000166 -114.839964 53 7335ft 209kts
25-Nov-21 15:50 36.058078 -114.845532 348 6373ft 226kts
25-Nov-21 15:51 36.084906 -114.904871 269 6163ft 206kts
25-Nov-21 15:52 36.078906 -114.974709 263 4939ft 201kts
25-Nov-21 15:53 36.076620 -115.035020 274 3504ft 145kts
25-Nov-21 15:54 36.076429 -115.082574 272 2764ft 129kts
25-Nov-21 15:55 36.076417 -115.125482 275 2073ft 119kts
25-Nov-21 15:56 36.076966 -115.146476 337 2123ft 22kts
25-Nov-21 15:57 36.078278 -115.147291 324 2123ft 14kts
25-Nov-21 15:58 36.079736 -115.151127 358 2139ft 13kts
25-Nov-21 15:59 36.083270 -115.150180 287 2115ft 7kts

Navigation Log

Ident Type
Flight plan parsing failed, navigation log unavailable